sensor_id;sensor_type;location;lat;lon;timestamp;temperature;humidity
20648;DHT22;10483;44.646;10.924;2022-12-26T16:39:33;13.20;99.90
20648;DHT22;10483;44.646;10.924;2022-12-26T16:42:04;13.00;99.90
20648;DHT22;10483;44.646;10.924;2022-12-26T16:44:37;13.00;99.90
20648;DHT22;10483;44.646;10.924;2022-12-26T16:47:08;13.00;99.90
20648;DHT22;10483;44.646;10.924;2022-12-26T16:49:35;13.00;99.90
20648;DHT22;10483;44.646;10.924;2022-12-26T16:52:03;13.00;99.90
20648;DHT22;10483;44.646;10.924;2022-12-26T16:54:37;13.10;99.90
20648;DHT22;10483;44.646;10.924;2022-12-26T16:57:07;13.10;99.90
20648;DHT22;10483;44.646;10.924;2022-12-26T16:59:43;13.10;99.90
20648;DHT22;10483;44.646;10.924;2022-12-26T17:02:23;13.10;99.90
20648;DHT22;10483;44.646;10.924;2022-12-26T17:04:48;13.10;99.90
20648;DHT22;10483;44.646;10.924;2022-12-26T17:07:15;13.10;99.90
20648;DHT22;10483;44.646;10.924;2022-12-26T17:09:48;13.10;99.90
20648;DHT22;10483;44.646;10.924;2022-12-26T17:12:19;13.20;99.90
20648;DHT22;10483;44.646;10.924;2022-12-26T17:14:48;13.20;99.90
20648;DHT22;10483;44.646;10.924;2022-12-26T17:17:32;13.20;99.90
20648;DHT22;10483;44.646;10.924;2022-12-26T17:20:33;13.20;99.90
20648;DHT22;10483;44.646;10.924;2022-12-26T17:22:45;13.20;99.90
20648;DHT22;10483;44.646;10.924;2022-12-26T17:25:25;13.20;99.90
20648;DHT22;10483;44.646;10.924;2022-12-26T17:30:31;13.10;99.90
20648;DHT22;10483;44.646;10.924;2022-12-26T17:33:11;13.20;99.90
20648;DHT22;10483;44.646;10.924;2022-12-26T17:35:47;13.10;99.90
20648;DHT22;10483;44.646;10.924;2022-12-26T17:38:12;13.10;99.90
20648;DHT22;10483;44.646;10.924;2022-12-26T17:40:40;13.10;99.90
20648;DHT22;10483;44.646;10.924;2022-12-26T17:43:28;13.10;99.90
20648;DHT22;10483;44.646;10.924;2022-12-26T17:45:53;13.10;99.90
20648;DHT22;10483;44.646;10.924;2022-12-26T17:48:19;13.10;99.90
20648;DHT22;10483;44.646;10.924;2022-12-26T17:50:48;13.20;99.90
20648;DHT22;10483;44.646;10.924;2022-12-26T17:53:29;13.20;99.90
20648;DHT22;10483;44.646;10.924;2022-12-26T17:55:59;13.10;99.90
20648;DHT22;10483;44.646;10.924;2022-12-26T17:58:28;13.10;99.90
20648;DHT22;10483;44.646;10.924;2022-12-26T18:00:55;13.10;99.90
20648;DHT22;10483;44.646;10.924;2022-12-26T18:03:22;13.10;99.90
20648;DHT22;10483;44.646;10.924;2022-12-26T18:05:49;13.20;99.90
20648;DHT22;10483;44.646;10.924;2022-12-26T18:08:30;13.20;99.90
20648;DHT22;10483;44.646;10.924;2022-12-26T18:10:58;13.10;99.90
20648;DHT22;10483;44.646;10.924;2022-12-26T18:13:25;13.10;99.90
20648;DHT22;10483;44.646;10.924;2022-12-26T18:15:53;13.10;99.90
20648;DHT22;10483;44.646;10.924;2022-12-26T18:18:26;13.10;99.90
20648;DHT22;10483;44.646;10.924;2022-12-26T18:20:53;13.10;99.90
20648;DHT22;10483;44.646;10.924;2022-12-26T18:23:19;13.10;99.90
20648;DHT22;10483;44.646;10.924;2022-12-26T18:25:48;13.10;99.90
20648;DHT22;10483;44.646;10.924;2022-12-26T18:28:16;13.10;99.90
20648;DHT22;10483;44.646;10.924;2022-12-26T18:30:44;13.10;99.90
20648;DHT22;10483;44.646;10.924;2022-12-26T18:33:11;13.00;99.90
20648;DHT22;10483;44.646;10.924;2022-12-26T18:35:40;13.10;99.90
20648;DHT22;10483;44.646;10.924;2022-12-26T18:38:07;13.00;99.90
20648;DHT22;10483;44.646;10.924;2022-12-26T18:40:39;13.00;99.90
20648;DHT22;10483;44.646;10.924;2022-12-26T18:43:07;13.00;99.90
20648;DHT22;10483;44.646;10.924;2022-12-26T18:45:34;12.90;99.90
20648;DHT22;10483;44.646;10.924;2022-12-26T18:48:03;13.00;99.90
20648;DHT22;10483;44.646;10.924;2022-12-26T18:50:31;13.00;99.90
20648;DHT22;10483;44.646;10.924;2022-12-26T18:52:58;13.00;99.90
20648;DHT22;10483;44.646;10.924;2022-12-26T18:55:25;13.00;99.90
20648;DHT22;10483;44.646;10.924;2022-12-26T18:57:54;13.00;99.90
20648;DHT22;10483;44.646;10.924;2022-12-26T19:00:21;13.00;99.90
20648;DHT22;10483;44.646;10.924;2022-12-26T19:02:49;13.00;99.90
20648;DHT22;10483;44.646;10.924;2022-12-26T19:05:20;13.00;99.90
20648;DHT22;10483;44.646;10.924;2022-12-26T19:07:47;13.00;99.90
20648;DHT22;10483;44.646;10.924;2022-12-26T19:10:19;13.00;99.90
20648;DHT22;10483;44.646;10.924;2022-12-26T19:12:46;13.00;99.90
20648;DHT22;10483;44.646;10.924;2022-12-26T19:15:13;13.00;99.90
20648;DHT22;10483;44.646;10.924;2022-12-26T19:17:41;13.00;99.90
20648;DHT22;10483;44.646;10.924;2022-12-26T19:20:16;13.00;99.90
20648;DHT22;10483;44.646;10.924;2022-12-26T19:22:44;13.00;99.90
20648;DHT22;10483;44.646;10.924;2022-12-26T19:25:11;13.00;99.90
20648;DHT22;10483;44.646;10.924;2022-12-26T19:27:39;13.00;99.90
20648;DHT22;10483;44.646;10.924;2022-12-26T19:30:07;13.00;99.90
20648;DHT22;10483;44.646;10.924;2022-12-26T19:32:34;13.00;99.90
20648;DHT22;10483;44.646;10.924;2022-12-26T19:35:01;13.00;99.90
20648;DHT22;10483;44.646;10.924;2022-12-26T19:37:28;12.90;99.90
20648;DHT22;10483;44.646;10.924;2022-12-26T19:39:55;13.00;99.90
20648;DHT22;10483;44.646;10.924;2022-12-26T19:42:22;13.00;99.90
20648;DHT22;10483;44.646;10.924;2022-12-26T19:44:49;13.00;99.90
20648;DHT22;10483;44.646;10.924;2022-12-26T19:47:16;13.00;99.90
20648;DHT22;10483;44.646;10.924;2022-12-26T19:49:42;12.90;99.90
20648;DHT22;10483;44.646;10.924;2022-12-26T19:52:10;12.90;99.90
20648;DHT22;10483;44.646;10.924;2022-12-26T19:54:37;12.90;99.90
20648;DHT22;10483;44.646;10.924;2022-12-26T19:57:04;12.80;99.90
20648;DHT22;10483;44.646;10.924;2022-12-26T19:59:31;12.90;99.90
20648;DHT22;10483;44.646;10.924;2022-12-26T20:01:58;12.80;99.90
20648;DHT22;10483;44.646;10.924;2022-12-26T20:04:26;12.70;99.90
20648;DHT22;10483;44.646;10.924;2022-12-26T20:06:53;12.70;99.90
20648;DHT22;10483;44.646;10.924;2022-12-26T20:09:22;12.70;99.90
20648;DHT22;10483;44.646;10.924;2022-12-26T20:11:48;12.60;99.90
20648;DHT22;10483;44.646;10.924;2022-12-26T20:14:17;12.60;99.90
20648;DHT22;10483;44.646;10.924;2022-12-26T20:16:45;12.60;99.90
20648;DHT22;10483;44.646;10.924;2022-12-26T20:19:14;12.60;99.90
20648;DHT22;10483;44.646;10.924;2022-12-26T20:21:41;12.60;99.90
20648;DHT22;10483;44.646;10.924;2022-12-26T20:24:10;12.60;99.90
20648;DHT22;10483;44.646;10.924;2022-12-26T20:26:37;12.60;99.90
20648;DHT22;10483;44.646;10.924;2022-12-26T20:29:04;12.60;99.90
20648;DHT22;10483;44.646;10.924;2022-12-26T20:31:32;12.60;99.90
20648;DHT22;10483;44.646;10.924;2022-12-26T20:33:59;12.50;99.90
20648;DHT22;10483;44.646;10.924;2022-12-26T20:36:29;12.50;99.90
20648;DHT22;10483;44.646;10.924;2022-12-26T20:38:57;12.60;99.90
20648;DHT22;10483;44.646;10.924;2022-12-26T20:41:26;12.60;99.90
20648;DHT22;10483;44.646;10.924;2022-12-26T20:43:53;12.50;99.90
20648;DHT22;10483;44.646;10.924;2022-12-26T20:46:22;12.50;99.90
20648;DHT22;10483;44.646;10.924;2022-12-26T20:48:49;12.50;99.90
20648;DHT22;10483;44.646;10.924;2022-12-26T20:51:20;12.50;99.90
20648;DHT22;10483;44.646;10.924;2022-12-26T20:53:49;12.40;99.90
20648;DHT22;10483;44.646;10.924;2022-12-26T20:56:16;12.30;99.90
20648;DHT22;10483;44.646;10.924;2022-12-26T20:58:42;12.30;99.90
20648;DHT22;10483;44.646;10.924;2022-12-26T21:01:13;12.20;99.90
20648;DHT22;10483;44.646;10.924;2022-12-26T21:03:40;12.10;99.90
20648;DHT22;10483;44.646;10.924;2022-12-26T21:06:10;12.00;99.90
20648;DHT22;10483;44.646;10.924;2022-12-26T21:08:38;12.10;99.90
20648;DHT22;10483;44.646;10.924;2022-12-26T21:11:09;12.10;99.90
20648;DHT22;10483;44.646;10.924;2022-12-26T21:13:37;12.10;99.90
20648;DHT22;10483;44.646;10.924;2022-12-26T21:16:24;12.20;99.90
20648;DHT22;10483;44.646;10.924;2022-12-26T21:18:52;12.20;99.90
20648;DHT22;10483;44.646;10.924;2022-12-26T21:21:22;12.20;99.90
20648;DHT22;10483;44.646;10.924;2022-12-26T21:23:54;12.20;99.90
20648;DHT22;10483;44.646;10.924;2022-12-26T21:26:22;12.30;99.90
20648;DHT22;10483;44.646;10.924;2022-12-26T21:28:53;12.30;99.90
20648;DHT22;10483;44.646;10.924;2022-12-26T21:31:21;12.30;99.90
20648;DHT22;10483;44.646;10.924;2022-12-26T21:33:47;12.30;99.90
20648;DHT22;10483;44.646;10.924;2022-12-26T21:36:14;12.30;99.90
20648;DHT22;10483;44.646;10.924;2022-12-26T21:38:41;12.20;99.90
20648;DHT22;10483;44.646;10.924;2022-12-26T21:41:09;12.20;99.90
20648;DHT22;10483;44.646;10.924;2022-12-26T21:43:37;12.20;99.90
20648;DHT22;10483;44.646;10.924;2022-12-26T21:46:08;12.10;99.90
20648;DHT22;10483;44.646;10.924;2022-12-26T21:48:35;12.20;99.90
20648;DHT22;10483;44.646;10.924;2022-12-26T21:51:06;12.20;99.90
20648;DHT22;10483;44.646;10.924;2022-12-26T21:53:31;12.20;99.90
20648;DHT22;10483;44.646;10.924;2022-12-26T21:56:05;12.30;99.90
20648;DHT22;10483;44.646;10.924;2022-12-26T21:58:32;12.20;99.90
20648;DHT22;10483;44.646;10.924;2022-12-26T22:01:01;12.30;99.90
20648;DHT22;10483;44.646;10.924;2022-12-26T22:03:28;12.20;99.90
20648;DHT22;10483;44.646;10.924;2022-12-26T22:06:00;12.20;99.90
20648;DHT22;10483;44.646;10.924;2022-12-26T22:08:27;12.20;99.90
20648;DHT22;10483;44.646;10.924;2022-12-26T22:10:53;12.20;99.90
20648;DHT22;10483;44.646;10.924;2022-12-26T22:13:26;12.10;99.90
20648;DHT22;10483;44.646;10.924;2022-12-26T22:15:55;12.20;99.90
20648;DHT22;10483;44.646;10.924;2022-12-26T22:18:35;12.20;99.90
20648;DHT22;10483;44.646;10.924;2022-12-26T22:21:07;12.20;99.90
20648;DHT22;10483;44.646;10.924;2022-12-26T22:23:34;12.20;99.90
20648;DHT22;10483;44.646;10.924;2022-12-26T22:26:01;12.20;99.90
20648;DHT22;10483;44.646;10.924;2022-12-26T22:28:28;12.20;99.90
20648;DHT22;10483;44.646;10.924;2022-12-26T22:30:56;12.10;99.90
20648;DHT22;10483;44.646;10.924;2022-12-26T22:33:23;12.10;99.90
20648;DHT22;10483;44.646;10.924;2022-12-26T22:35:50;12.10;99.90
20648;DHT22;10483;44.646;10.924;2022-12-26T22:38:16;12.20;99.90
20648;DHT22;10483;44.646;10.924;2022-12-26T22:40:51;12.20;99.90
20648;DHT22;10483;44.646;10.924;2022-12-26T22:43:17;12.20;99.90
20648;DHT22;10483;44.646;10.924;2022-12-26T22:45:44;12.20;99.90
20648;DHT22;10483;44.646;10.924;2022-12-26T22:48:11;12.20;99.90
20648;DHT22;10483;44.646;10.924;2022-12-26T22:50:41;12.20;99.90
20648;DHT22;10483;44.646;10.924;2022-12-26T22:53:09;12.20;99.90
20648;DHT22;10483;44.646;10.924;2022-12-26T22:55:36;12.20;99.90
20648;DHT22;10483;44.646;10.924;2022-12-26T22:58:02;12.20;99.90
20648;DHT22;10483;44.646;10.924;2022-12-26T23:00:29;12.20;99.90
20648;DHT22;10483;44.646;10.924;2022-12-26T23:02:55;12.20;99.90
20648;DHT22;10483;44.646;10.924;2022-12-26T23:05:22;12.20;99.90
20648;DHT22;10483;44.646;10.924;2022-12-26T23:07:50;12.20;99.90
20648;DHT22;10483;44.646;10.924;2022-12-26T23:10:20;12.30;99.90
20648;DHT22;10483;44.646;10.924;2022-12-26T23:12:47;12.30;99.90
20648;DHT22;10483;44.646;10.924;2022-12-26T23:15:20;12.30;99.90
20648;DHT22;10483;44.646;10.924;2022-12-26T23:18:15;12.30;99.90
20648;DHT22;10483;44.646;10.924;2022-12-26T23:20:43;12.30;99.90
20648;DHT22;10483;44.646;10.924;2022-12-26T23:23:16;12.30;99.90
20648;DHT22;10483;44.646;10.924;2022-12-26T23:25:42;12.30;99.90
20648;DHT22;10483;44.646;10.924;2022-12-26T23:28:09;12.30;99.90
20648;DHT22;10483;44.646;10.924;2022-12-26T23:30:41;12.20;99.90
20648;DHT22;10483;44.646;10.924;2022-12-26T23:33:08;12.20;99.90
20648;DHT22;10483;44.646;10.924;2022-12-26T23:35:35;12.10;99.90
20648;DHT22;10483;44.646;10.924;2022-12-26T23:38:01;12.20;99.90
20648;DHT22;10483;44.646;10.924;2022-12-26T23:40:28;12.20;99.90
20648;DHT22;10483;44.646;10.924;2022-12-26T23:42:54;12.20;99.90
20648;DHT22;10483;44.646;10.924;2022-12-26T23:45:21;12.30;99.90
20648;DHT22;10483;44.646;10.924;2022-12-26T23:47:47;12.20;99.90
20648;DHT22;10483;44.646;10.924;2022-12-26T23:50:15;12.10;99.90
20648;DHT22;10483;44.646;10.924;2022-12-26T23:52:42;12.10;99.90
20648;DHT22;10483;44.646;10.924;2022-12-26T23:55:09;12.10;99.90
20648;DHT22;10483;44.646;10.924;2022-12-26T23:57:37;12.10;99.90
